createdAt,value
2022-09-06T00:00:44.929Z,6.50
2022-09-06T00:01:44.924Z,6.90
2022-09-06T00:02:44.990Z,6.20
2022-09-06T00:03:45.002Z,6.90
2022-09-06T00:04:44.889Z,6.70
2022-09-06T00:05:44.881Z,6.90
2022-09-06T00:06:44.886Z,6.20
2022-09-06T00:07:44.872Z,6.50
2022-09-06T00:08:44.855Z,6.80
2022-09-06T00:09:44.859Z,6.70
2022-09-06T00:10:44.881Z,6.70
2022-09-06T00:11:44.835Z,7.10
2022-09-06T00:12:44.822Z,6.60
2022-09-06T00:13:44.808Z,6.60
2022-09-06T00:14:44.792Z,6.60
2022-09-06T00:15:44.884Z,6.90
2022-09-06T00:16:44.775Z,7.00
2022-09-06T00:17:44.779Z,7.00
2022-09-06T00:18:44.752Z,6.50
2022-09-06T00:19:44.746Z,7.10
2022-09-06T00:20:44.736Z,6.80
2022-09-06T00:21:44.784Z,6.80
2022-09-06T00:22:44.714Z,6.80
2022-09-06T00:23:44.705Z,7.10
2022-09-06T00:24:44.694Z,7.00
2022-09-06T00:25:44.691Z,6.80
2022-09-06T00:26:44.699Z,6.70
2022-09-06T00:27:44.670Z,6.80
2022-09-06T00:28:44.656Z,7.20
2022-09-06T00:29:44.650Z,7.20
2022-09-06T00:30:44.684Z,6.90
2022-09-06T00:31:44.646Z,6.80
2022-09-06T00:32:44.621Z,6.80
2022-09-06T00:33:44.630Z,6.90
2022-09-06T00:34:44.605Z,6.60
2022-09-06T00:35:44.590Z,7.10
2022-09-06T00:36:44.580Z,6.90
2022-09-06T00:37:44.570Z,7.00
2022-09-06T00:38:44.584Z,6.90
2022-09-06T00:39:44.582Z,7.20
2022-09-06T00:40:44.540Z,7.30
2022-09-06T00:41:44.529Z,6.90
2022-09-06T00:42:44.524Z,7.30
2022-09-06T00:43:44.536Z,7.10
2022-09-06T00:44:44.497Z,7.20
2022-09-06T00:45:44.492Z,7.70
2022-09-06T00:46:44.543Z,7.50
2022-09-06T00:47:44.476Z,7.50
2022-09-06T00:48:44.701Z,7.80
2022-09-06T00:49:44.468Z,7.60
2022-09-06T00:50:44.454Z,7.90
2022-09-06T00:51:44.436Z,7.60
2022-09-06T00:52:44.431Z,7.50
2022-09-06T00:53:44.440Z,7.60
2022-09-06T00:54:44.412Z,7.90
2022-09-06T00:55:44.405Z,7.80
2022-09-06T00:56:44.388Z,7.60
2022-09-06T00:57:44.445Z,7.80
2022-09-06T00:58:44.396Z,7.30
2022-09-06T00:59:44.361Z,7.90
2022-09-06T01:00:44.354Z,7.40
2022-09-06T01:01:44.421Z,8.30
2022-09-06T01:02:44.380Z,7.70
2022-09-06T01:03:44.353Z,7.40
2022-09-06T01:04:44.311Z,7.60
2022-09-06T01:05:44.326Z,7.90
2022-09-06T01:06:44.294Z,8.00
2022-09-06T01:07:44.284Z,7.60
2022-09-06T01:08:44.270Z,7.60
2022-09-06T01:09:44.269Z,7.90
2022-09-06T01:10:44.273Z,7.70
2022-09-06T01:11:44.251Z,7.70
2022-09-06T01:12:44.246Z,7.60
2022-09-06T01:13:44.233Z,7.40
2022-09-06T01:14:44.213Z,7.90
2022-09-06T01:15:44.235Z,7.80
2022-09-06T01:16:44.194Z,7.70
2022-09-06T01:17:44.182Z,7.90
2022-09-06T01:18:44.179Z,7.80
2022-09-06T01:19:44.166Z,7.60
2022-09-06T01:20:44.199Z,7.90
2022-09-06T01:21:44.135Z,7.90
2022-09-06T01:22:44.138Z,8.40
2022-09-06T01:23:44.122Z,8.20
2022-09-06T01:25:16.022Z,8.10
2022-09-06T01:25:44.120Z,7.90
2022-09-06T01:26:44.077Z,8.10
2022-09-06T01:27:44.103Z,8.20
2022-09-06T01:28:44.075Z,7.90
2022-09-06T01:29:44.055Z,8.20
2022-09-06T01:30:44.085Z,7.70
2022-09-06T01:31:44.044Z,8.50
2022-09-06T01:32:44.049Z,8.10
2022-09-06T01:33:44.025Z,8.20
2022-09-06T01:34:44.017Z,8.30
2022-09-06T01:35:44.006Z,8.30
2022-09-06T01:37:06.187Z,8.10
2022-09-06T01:37:46.014Z,8.70
2022-09-06T01:38:43.984Z,8.10
2022-09-06T01:39:44.039Z,8.30
2022-09-06T01:40:43.960Z,8.40
2022-09-06T01:41:43.969Z,8.20
2022-09-06T01:42:43.941Z,8.70
2022-09-06T01:43:43.937Z,8.50
2022-09-06T01:44:43.942Z,8.20
2022-09-06T01:45:43.992Z,8.60
2022-09-06T01:46:43.901Z,8.20
2022-09-06T01:47:43.996Z,9.30
2022-09-06T01:48:43.879Z,8.50
2022-09-06T01:49:43.893Z,8.30
2022-09-06T01:50:43.859Z,8.70
2022-09-06T01:51:43.861Z,8.60
2022-09-06T01:52:43.854Z,8.80
2022-09-06T01:53:43.832Z,8.80
2022-09-06T01:54:44.846Z,8.40
2022-09-06T01:55:43.816Z,8.20
2022-09-06T01:56:43.798Z,8.50
2022-09-06T01:57:43.794Z,8.80
2022-09-06T01:58:43.808Z,8.40
2022-09-06T01:59:43.775Z,9.20
2022-09-06T02:00:43.773Z,9.00
2022-09-06T02:01:43.861Z,8.20
2022-09-06T02:02:43.847Z,8.70
2022-09-06T02:03:43.746Z,8.70
2022-09-06T02:04:43.745Z,8.50
2022-09-06T02:05:43.741Z,8.70
2022-09-06T02:06:43.713Z,8.80
2022-09-06T02:07:43.699Z,9.20
2022-09-06T02:08:43.692Z,8.70
2022-09-06T02:09:43.678Z,8.70
2022-09-06T02:10:43.709Z,8.20
2022-09-06T02:11:43.664Z,8.80
2022-09-06T02:12:44.651Z,8.60
2022-09-06T02:13:43.638Z,8.70
2022-09-06T02:14:43.623Z,8.80
2022-09-06T02:15:43.658Z,8.90
2022-09-06T02:16:43.639Z,8.90
2022-09-06T02:17:43.614Z,8.00
2022-09-06T02:18:43.593Z,8.10
2022-09-06T02:19:43.584Z,9.00
2022-09-06T02:20:43.590Z,8.80
2022-09-06T02:21:43.588Z,8.50
2022-09-06T02:22:43.554Z,8.60
2022-09-06T02:23:43.544Z,9.30
2022-09-06T02:24:43.536Z,8.50
2022-09-06T02:25:43.518Z,8.50
2022-09-06T02:26:43.540Z,8.80
2022-09-06T02:27:43.506Z,9.00
2022-09-06T02:28:43.493Z,8.90
2022-09-06T02:29:43.473Z,8.80
2022-09-06T02:30:43.608Z,8.80
2022-09-06T02:31:43.473Z,8.40
2022-09-06T02:32:43.469Z,8.50
2022-09-06T02:33:43.442Z,8.40
2022-09-06T02:34:43.423Z,8.80
2022-09-06T02:35:43.417Z,8.60
2022-09-06T02:36:43.406Z,9.60
2022-09-06T02:37:43.420Z,9.30
2022-09-06T02:38:43.411Z,8.60
2022-09-06T02:39:43.431Z,8.40
2022-09-06T02:40:43.371Z,8.70
2022-09-06T02:41:43.356Z,8.50
2022-09-06T02:42:43.366Z,8.60
2022-09-06T02:43:43.332Z,8.50
2022-09-06T02:44:43.346Z,8.10
2022-09-06T02:45:43.369Z,8.70
2022-09-06T02:46:43.311Z,8.70
2022-09-06T02:47:43.288Z,8.00
2022-09-06T02:48:44.295Z,8.20
2022-09-06T02:49:43.302Z,9.00
2022-09-06T02:50:43.270Z,9.00
2022-09-06T02:51:43.258Z,8.50
2022-09-06T02:52:43.277Z,8.50
2022-09-06T02:53:43.238Z,8.30
2022-09-06T02:54:43.221Z,8.50
2022-09-06T02:55:43.213Z,8.00
2022-09-06T02:56:43.204Z,7.90
2022-09-06T02:57:43.237Z,8.50
2022-09-06T02:58:43.214Z,8.40
2022-09-06T02:59:43.180Z,8.70
2022-09-06T03:00:43.174Z,8.70
2022-09-06T03:01:43.233Z,8.80
2022-09-06T03:02:43.226Z,9.60
2022-09-06T03:03:43.135Z,9.30
2022-09-06T03:04:43.124Z,9.40
2022-09-06T03:05:43.115Z,8.90
2022-09-06T03:06:43.106Z,9.30
2022-09-06T03:07:43.116Z,9.20
2022-09-06T03:08:43.098Z,9.50
2022-09-06T03:09:43.076Z,8.70
2022-09-06T03:10:43.066Z,8.70
2022-09-06T03:11:43.049Z,8.90
2022-09-06T03:12:44.099Z,9.10
2022-09-06T03:13:43.051Z,8.90
2022-09-06T03:14:43.042Z,8.40
2022-09-06T03:15:43.017Z,8.60
2022-09-06T03:16:43.068Z,9.20
2022-09-06T03:17:43.027Z,8.70
2022-09-06T03:18:42.999Z,9.20
2022-09-06T03:19:42.988Z,9.70
2022-09-06T03:20:42.981Z,9.10
2022-09-06T03:21:42.975Z,9.00
2022-09-06T03:22:42.971Z,9.10
2022-09-06T03:23:42.939Z,9.40
2022-09-06T03:24:42.935Z,9.00
2022-09-06T03:25:42.925Z,9.10
2022-09-06T03:26:42.936Z,9.10
2022-09-06T03:27:42.901Z,9.20
2022-09-06T03:28:42.892Z,9.00
2022-09-06T03:29:42.897Z,9.30
2022-09-06T03:30:42.945Z,9.70
2022-09-06T03:31:42.866Z,9.50
2022-09-06T03:32:42.909Z,9.00
2022-09-06T03:33:42.885Z,8.40
2022-09-06T03:34:42.863Z,9.00
2022-09-06T03:35:42.828Z,9.30
2022-09-06T03:36:42.879Z,9.00
2022-09-06T03:37:42.813Z,9.00
2022-09-06T03:38:42.801Z,8.80
2022-09-06T03:39:42.837Z,8.80
2022-09-06T03:40:42.783Z,9.10
2022-09-06T03:41:42.801Z,8.90
2022-09-06T03:42:42.764Z,9.20
2022-09-06T03:43:42.774Z,8.90
2022-09-06T03:44:42.743Z,9.90
2022-09-06T03:45:42.775Z,9.40
2022-09-06T03:46:42.745Z,9.30
2022-09-06T03:47:42.722Z,9.40
2022-09-06T03:48:42.711Z,9.20
2022-09-06T03:49:42.712Z,9.70
2022-09-06T03:50:42.693Z,9.40
2022-09-06T03:51:42.677Z,9.00
2022-09-06T03:52:42.688Z,8.70
2022-09-06T03:53:42.701Z,9.60
2022-09-06T03:54:42.641Z,9.30
2022-09-06T03:55:42.645Z,9.20
2022-09-06T03:56:42.623Z,10.10
2022-09-06T03:57:42.643Z,9.40
2022-09-06T03:58:42.608Z,9.40
2022-09-06T03:59:42.597Z,9.10
2022-09-06T04:00:42.595Z,9.90
2022-09-06T04:01:42.692Z,9.80
2022-09-06T04:02:42.662Z,9.60
2022-09-06T04:03:42.564Z,9.40
2022-09-06T04:04:42.555Z,9.50
2022-09-06T04:05:42.559Z,9.10
2022-09-06T04:06:42.555Z,9.80
2022-09-06T04:07:42.513Z,9.20
2022-09-06T04:08:42.512Z,9.40
2022-09-06T04:09:42.502Z,9.30
2022-09-06T04:10:42.486Z,9.60
2022-09-06T04:11:45.033Z,9.70
2022-09-06T04:12:43.467Z,9.30
2022-09-06T04:13:42.468Z,10.20
2022-09-06T04:14:42.466Z,9.20
2022-09-06T04:15:42.437Z,10.10
2022-09-06T04:16:42.472Z,9.60
2022-09-06T04:17:42.424Z,9.40
2022-09-06T04:18:42.417Z,9.20
2022-09-06T04:19:42.417Z,9.60
2022-09-06T04:20:42.410Z,10.10
2022-09-06T04:21:42.378Z,9.80
2022-09-06T04:22:42.401Z,9.80
2022-09-06T04:23:42.365Z,10.40
2022-09-06T04:24:42.346Z,9.60
2022-09-06T04:25:42.366Z,9.30
2022-09-06T04:26:42.348Z,9.20
2022-09-06T04:27:42.330Z,8.70
2022-09-06T04:28:42.343Z,8.30
2022-09-06T04:29:42.296Z,8.50
2022-09-06T04:30:42.286Z,8.70
2022-09-06T04:31:42.308Z,8.70
2022-09-06T04:32:42.273Z,8.00
2022-09-06T04:33:42.292Z,8.50
2022-09-06T04:34:42.245Z,8.40
2022-09-06T04:35:42.240Z,8.00
2022-09-06T04:36:45.403Z,8.10
2022-09-06T04:37:44.230Z,8.40
2022-09-06T04:38:42.236Z,8.70
2022-09-06T04:39:42.257Z,8.20
2022-09-06T04:40:42.189Z,8.20
2022-09-06T04:41:42.178Z,8.50
2022-09-06T04:42:42.317Z,8.50
2022-09-06T04:43:42.170Z,7.60
2022-09-06T04:44:42.264Z,8.90
2022-09-06T04:45:42.178Z,7.90
2022-09-06T04:46:43.222Z,8.10
2022-09-06T04:47:42.138Z,8.40
2022-09-06T04:48:42.122Z,8.20
2022-09-06T04:49:42.142Z,8.20
2022-09-06T04:50:42.100Z,7.40
2022-09-06T04:51:42.085Z,8.10
2022-09-06T04:52:42.078Z,8.00
2022-09-06T04:53:42.073Z,7.90
2022-09-06T04:54:42.076Z,8.00
2022-09-06T04:55:42.065Z,8.10
2022-09-06T04:56:42.043Z,8.10
2022-09-06T04:57:45.769Z,8.30
2022-09-06T04:58:44.022Z,8.30
2022-09-06T04:59:42.024Z,8.40
2022-09-06T05:00:42.053Z,7.70
2022-09-06T05:01:41.991Z,8.50
2022-09-06T05:02:42.034Z,8.50
2022-09-06T05:03:41.967Z,8.60
2022-09-06T05:04:41.956Z,8.20
2022-09-06T05:05:41.952Z,8.20
2022-09-06T05:06:41.968Z,8.20
2022-09-06T05:07:41.939Z,8.20
2022-09-06T05:08:41.919Z,8.50
2022-09-06T05:09:41.930Z,8.60
2022-09-06T05:10:41.892Z,8.40
2022-09-06T05:11:41.883Z,8.60
2022-09-06T05:12:44.270Z,8.60
2022-09-06T05:13:41.872Z,7.90
2022-09-06T05:14:41.863Z,8.20
2022-09-06T05:15:41.852Z,8.50
2022-09-06T05:16:41.908Z,8.70
2022-09-06T05:17:41.855Z,8.90
2022-09-06T05:18:41.826Z,8.20
2022-09-06T05:19:41.802Z,7.90
2022-09-06T05:20:42.801Z,7.80
2022-09-06T05:21:41.785Z,8.10
2022-09-06T05:22:41.789Z,8.20
2022-09-06T05:23:41.791Z,7.90
2022-09-06T05:24:41.776Z,8.40
2022-09-06T05:25:41.753Z,8.70
2022-09-06T05:26:41.735Z,8.30
2022-09-06T05:27:41.754Z,8.10
2022-09-06T05:28:41.734Z,8.10
2022-09-06T05:29:41.708Z,8.10
2022-09-06T05:30:41.735Z,8.50
2022-09-06T05:31:41.748Z,8.30
2022-09-06T05:32:41.685Z,8.40
2022-09-06T05:33:41.674Z,8.10
2022-09-06T05:34:41.681Z,8.10
2022-09-06T05:35:41.661Z,8.60
2022-09-06T05:36:41.663Z,8.40
2022-09-06T05:37:41.620Z,8.40
2022-09-06T05:38:42.627Z,8.60
2022-09-06T05:39:41.677Z,8.80
2022-09-06T05:40:41.609Z,9.20
2022-09-06T05:41:41.610Z,8.70
2022-09-06T05:42:41.582Z,8.30
2022-09-06T05:43:41.588Z,8.90
2022-09-06T05:44:41.570Z,8.70
2022-09-06T05:45:41.604Z,8.60
2022-09-06T05:46:41.560Z,8.50
2022-09-06T05:47:41.548Z,8.90
2022-09-06T05:48:41.540Z,8.70
2022-09-06T05:49:41.512Z,8.50
2022-09-06T05:50:41.515Z,8.40
2022-09-06T05:51:41.513Z,8.50
2022-09-06T05:52:41.498Z,8.10
2022-09-06T05:53:41.481Z,8.20
2022-09-06T05:54:41.466Z,8.70
2022-09-06T05:55:43.144Z,8.50
2022-09-06T05:56:42.456Z,8.40
2022-09-06T05:57:41.436Z,8.50
2022-09-06T05:58:41.425Z,9.10
2022-09-06T05:59:41.444Z,9.30
2022-09-06T06:00:41.433Z,8.90
2022-09-06T06:01:41.447Z,8.60
2022-09-06T06:02:41.410Z,8.40
2022-09-06T06:03:41.381Z,8.00
2022-09-06T06:04:41.362Z,8.50
2022-09-06T06:05:41.508Z,9.10
2022-09-06T06:06:41.349Z,8.30
2022-09-06T06:07:41.350Z,8.40
2022-09-06T06:08:41.334Z,8.50
2022-09-06T06:09:41.334Z,8.50
2022-09-06T06:10:41.471Z,9.70
2022-09-06T06:11:41.301Z,9.00
2022-09-06T06:12:41.295Z,9.00
2022-09-06T06:13:41.314Z,8.60
2022-09-06T06:14:41.296Z,7.90
2022-09-06T06:15:41.298Z,8.10
2022-09-06T06:16:41.510Z,7.70
2022-09-06T06:17:41.253Z,7.70
2022-09-06T06:18:41.229Z,7.90
2022-09-06T06:19:41.223Z,7.30
2022-09-06T06:20:41.237Z,7.50
2022-09-06T06:21:41.214Z,8.30
2022-09-06T06:22:41.199Z,7.90
2022-09-06T06:23:41.197Z,8.20
2022-09-06T06:24:41.172Z,7.90
2022-09-06T06:25:41.198Z,8.90
2022-09-06T06:26:41.152Z,7.90
2022-09-06T06:27:41.175Z,7.90
2022-09-06T06:28:41.162Z,8.60
2022-09-06T06:29:41.131Z,8.50
2022-09-06T06:30:41.125Z,8.80
2022-09-06T06:31:41.138Z,8.90
2022-09-06T06:32:41.138Z,9.30
2022-09-06T06:33:41.104Z,9.20
2022-09-06T06:34:41.086Z,8.80
2022-09-06T06:35:41.104Z,8.60
2022-09-06T06:36:41.073Z,8.80
2022-09-06T06:37:41.050Z,8.90
2022-09-06T06:38:41.068Z,8.60
2022-09-06T06:39:41.083Z,8.70
2022-09-06T06:40:41.023Z,8.60
2022-09-06T06:41:41.009Z,8.80
2022-09-06T06:42:41.001Z,9.00
2022-09-06T06:43:41.003Z,8.60
2022-09-06T06:44:40.969Z,8.50
2022-09-06T06:45:42.049Z,9.00
2022-09-06T06:46:40.984Z,8.90
2022-09-06T06:47:40.950Z,9.00
2022-09-06T06:48:40.946Z,9.20
2022-09-06T06:49:40.949Z,9.50
2022-09-06T06:50:40.929Z,8.40
2022-09-06T06:51:40.926Z,9.10
2022-09-06T06:52:40.911Z,8.80
2022-09-06T06:53:40.898Z,9.40
2022-09-06T06:54:40.914Z,9.20
2022-09-06T06:55:40.878Z,9.00
2022-09-06T06:56:40.889Z,8.50
2022-09-06T06:57:40.852Z,9.10
2022-09-06T06:58:40.846Z,9.20
2022-09-06T06:59:40.836Z,9.20
2022-09-06T07:00:40.850Z,9.40
2022-09-06T07:01:40.915Z,9.00
2022-09-06T07:02:40.820Z,8.80
2022-09-06T07:03:40.805Z,8.60
2022-09-06T07:04:41.796Z,9.00
2022-09-06T07:07:42.782Z,9.10
2022-09-06T07:08:40.741Z,9.20
2022-09-06T07:10:40.721Z,8.70
2022-09-06T07:11:40.717Z,8.40
2022-09-06T07:12:40.733Z,8.20
2022-09-06T07:13:40.696Z,7.70
2022-09-06T07:14:40.684Z,8.40
2022-09-06T07:15:40.667Z,8.60
2022-09-06T07:16:40.711Z,7.90
2022-09-06T07:17:40.822Z,8.00
2022-09-06T07:18:40.651Z,8.30
2022-09-06T07:21:40.626Z,8.60
2022-09-06T07:22:40.666Z,8.60
2022-09-06T07:24:41.594Z,8.30
2022-09-06T07:26:12.506Z,8.10
2022-09-06T07:26:40.870Z,7.80
2022-09-06T07:27:48.617Z,7.90
2022-09-06T07:28:42.561Z,7.80
2022-09-06T07:29:40.547Z,8.30
2022-09-06T07:30:40.532Z,7.80
2022-09-06T07:32:40.520Z,8.20
2022-09-06T07:33:40.496Z,8.00
2022-09-06T07:34:41.496Z,7.60
2022-09-06T07:35:40.486Z,8.30
2022-09-06T07:36:40.491Z,7.90
2022-09-06T07:37:40.467Z,8.00
2022-09-06T07:38:40.455Z,8.30
2022-09-06T07:39:40.518Z,8.00
2022-09-06T07:40:40.451Z,7.70
2022-09-06T07:41:40.439Z,7.80
2022-09-06T07:42:40.433Z,7.80
2022-09-06T07:43:40.407Z,7.90
2022-09-06T07:44:40.423Z,8.30
2022-09-06T07:45:40.394Z,7.40
2022-09-06T07:46:40.420Z,7.40
2022-09-06T07:48:41.366Z,6.90
2022-09-06T07:49:40.441Z,6.90
2022-09-06T07:50:48.915Z,7.00
2022-09-06T07:51:42.335Z,6.70
2022-09-06T07:53:41.332Z,6.90
2022-09-06T07:54:40.306Z,7.50
2022-09-06T07:55:40.293Z,6.80
2022-09-06T07:56:40.294Z,7.20
2022-09-06T07:57:40.280Z,6.50
2022-09-06T07:58:40.284Z,6.90
2022-09-06T07:59:42.993Z,6.80
2022-09-06T08:00:40.293Z,7.10
2022-09-06T08:01:40.325Z,7.00
2022-09-06T08:02:40.232Z,7.00
2022-09-06T08:03:40.243Z,7.10
2022-09-06T08:04:40.263Z,7.30
2022-09-06T08:07:41.162Z,7.20
2022-09-06T08:09:41.183Z,7.00
2022-09-06T08:10:40.154Z,7.00
2022-09-06T08:11:40.136Z,7.20
2022-09-06T08:12:40.140Z,7.50
2022-09-06T08:13:40.135Z,7.90
2022-09-06T08:14:40.123Z,7.40
2022-09-06T08:15:41.708Z,7.00
2022-09-06T08:16:40.185Z,6.80
2022-09-06T08:17:40.091Z,6.80
2022-09-06T08:18:40.068Z,6.50
2022-09-06T08:19:40.057Z,6.50
2022-09-06T08:20:40.058Z,6.50
2022-09-06T08:21:40.063Z,6.40
2022-09-06T08:22:40.041Z,6.20
2022-09-06T08:23:40.023Z,5.90
2022-09-06T08:24:40.021Z,5.70
2022-09-06T08:25:40.005Z,6.30
2022-09-06T08:26:40.019Z,6.80
2022-09-06T08:27:40.003Z,7.20
2022-09-06T08:28:39.969Z,7.10
2022-09-06T08:29:39.977Z,7.20
2022-09-06T08:30:39.948Z,6.60
2022-09-06T08:31:40.021Z,6.60
2022-09-06T08:32:39.956Z,6.10
2022-09-06T08:33:39.924Z,6.60
2022-09-06T08:34:39.912Z,6.10
2022-09-06T08:35:40.911Z,8.00
2022-09-06T08:36:39.893Z,6.70
2022-09-06T08:37:39.888Z,6.60
2022-09-06T08:38:39.909Z,6.80
2022-09-06T08:39:39.916Z,6.80
2022-09-06T08:40:39.844Z,6.40
2022-09-06T08:41:40.853Z,6.80
2022-09-06T08:42:39.846Z,6.20
2022-09-06T08:43:39.828Z,6.60
2022-09-06T08:44:55.897Z,6.20
2022-09-06T08:45:41.817Z,6.00
2022-09-06T08:46:39.843Z,6.60
2022-09-06T08:47:39.812Z,6.30
2022-09-06T08:48:39.817Z,6.40
2022-09-06T08:49:39.771Z,6.40
2022-09-06T08:50:39.765Z,6.40
2022-09-06T08:51:39.759Z,6.60
2022-09-06T08:52:49.554Z,6.40
2022-09-06T08:53:41.735Z,6.80
2022-09-06T08:54:39.717Z,6.40
2022-09-06T08:55:39.716Z,7.10
2022-09-06T08:56:39.716Z,6.30
2022-09-06T08:57:40.546Z,7.10
2022-09-06T08:58:39.687Z,5.90
2022-09-06T08:59:39.665Z,6.20
2022-09-06T09:00:39.837Z,6.10
2022-09-06T09:01:39.700Z,6.00
2022-09-06T09:02:39.652Z,6.00
2022-09-06T09:03:39.663Z,5.80
2022-09-06T09:04:39.634Z,5.90
2022-09-06T09:05:39.610Z,5.70
2022-09-06T09:06:39.608Z,4.90
2022-09-06T09:07:39.585Z,5.10
2022-09-06T09:08:39.619Z,4.70
2022-09-06T09:09:39.585Z,4.90
2022-09-06T09:10:39.598Z,4.10
2022-09-06T09:11:39.569Z,4.30
2022-09-06T09:12:39.546Z,4.40
2022-09-06T09:13:39.536Z,4.60
2022-09-06T09:14:39.523Z,4.50
2022-09-06T09:15:40.604Z,4.50
2022-09-06T09:16:39.611Z,4.00
2022-09-06T09:17:40.505Z,4.10
2022-09-06T09:18:39.516Z,4.10
2022-09-06T09:19:39.485Z,4.10
2022-09-06T09:20:39.476Z,4.10
2022-09-06T09:21:39.468Z,4.20
2022-09-06T09:22:39.485Z,3.70
2022-09-06T09:23:39.438Z,4.50
2022-09-06T09:24:40.436Z,4.00
2022-09-06T09:25:39.434Z,4.00
2022-09-06T09:26:39.425Z,4.10
2022-09-06T09:27:39.611Z,4.10
2022-09-06T09:28:39.408Z,4.10
2022-09-06T09:29:39.450Z,4.10
2022-09-06T09:31:40.460Z,4.30
2022-09-06T09:32:39.355Z,4.50
2022-09-06T09:33:39.352Z,4.30
2022-09-06T09:34:39.339Z,3.40
2022-09-06T09:35:39.333Z,3.50
2022-09-06T09:36:39.381Z,3.50
2022-09-06T09:37:46.962Z,3.70
2022-09-06T09:38:41.325Z,3.90
2022-09-06T09:39:39.395Z,4.00
2022-09-06T09:40:39.299Z,3.90
2022-09-06T09:41:39.274Z,3.50
2022-09-06T09:42:39.264Z,3.70
2022-09-06T09:43:39.262Z,3.60
2022-09-06T09:44:39.270Z,3.40
2022-09-06T09:45:39.236Z,3.30
2022-09-06T09:46:39.336Z,3.40
2022-09-06T09:47:39.223Z,3.80
2022-09-06T09:48:39.224Z,3.60
2022-09-06T09:49:39.195Z,3.90
2022-09-06T09:50:39.195Z,3.70
2022-09-06T09:51:39.212Z,3.40
2022-09-06T09:52:39.161Z,3.20
2022-09-06T09:53:39.150Z,3.60
2022-09-06T09:54:39.139Z,3.30
2022-09-06T09:55:39.140Z,3.70
2022-09-06T09:56:39.149Z,3.70
2022-09-06T09:57:39.113Z,3.40
2022-09-06T09:58:39.100Z,3.70
2022-09-06T09:59:39.123Z,3.30
2022-09-06T10:00:39.130Z,3.60
2022-09-06T10:01:39.083Z,3.40
2022-09-06T10:02:39.104Z,3.10
2022-09-06T10:05:39.039Z,3.20
2022-09-06T10:07:40.023Z,3.10
2022-09-06T10:08:39.013Z,3.20
2022-09-06T10:09:39.023Z,3.00
2022-09-06T10:10:38.991Z,3.30
2022-09-06T10:11:38.984Z,3.30
2022-09-06T10:12:38.985Z,3.60
2022-09-06T10:13:38.973Z,3.30
2022-09-06T10:14:38.985Z,3.40
2022-09-06T10:15:39.118Z,3.50
2022-09-06T10:16:38.922Z,3.20
2022-09-06T10:17:38.931Z,3.20
2022-09-06T10:18:38.917Z,3.60
2022-09-06T10:19:38.902Z,3.50
2022-09-06T10:20:38.924Z,3.10
2022-09-06T10:21:38.884Z,3.20
2022-09-06T10:22:38.876Z,3.10
2022-09-06T10:24:38.867Z,3.30
2022-09-06T10:25:38.892Z,3.10
2022-09-06T10:26:38.882Z,3.40
2022-09-06T10:27:45.721Z,3.20
2022-09-06T10:28:39.836Z,3.40
2022-09-06T10:29:38.808Z,3.20
2022-09-06T10:30:38.798Z,3.10
2022-09-06T10:31:38.819Z,3.60
2022-09-06T10:32:38.792Z,3.20
2022-09-06T10:33:38.806Z,3.20
2022-09-06T10:34:38.800Z,3.60
2022-09-06T10:35:38.771Z,3.10
2022-09-06T10:36:38.752Z,2.40
2022-09-06T10:37:38.730Z,3.00
2022-09-06T10:38:38.722Z,2.40
2022-09-06T10:39:38.749Z,2.40
2022-09-06T10:40:38.727Z,2.60
2022-09-06T10:41:38.706Z,2.20
2022-09-06T10:42:38.694Z,2.30
2022-09-06T10:43:38.686Z,2.10
2022-09-06T10:44:38.694Z,2.30
2022-09-06T10:45:38.667Z,2.00
2022-09-06T10:46:38.711Z,1.90
2022-09-06T10:47:38.646Z,2.10
2022-09-06T10:48:38.636Z,2.30
2022-09-06T10:49:38.643Z,2.40
2022-09-06T10:50:38.619Z,2.30
2022-09-06T10:51:38.625Z,2.40
2022-09-06T10:52:38.650Z,2.60
2022-09-06T10:53:38.590Z,2.30
2022-09-06T10:54:38.577Z,2.40
2022-09-06T10:55:38.575Z,2.40
2022-09-06T10:56:38.584Z,2.20
2022-09-06T10:59:39.538Z,2.30
2022-09-06T11:00:38.519Z,2.30
2022-09-06T11:01:38.603Z,2.40
2022-09-06T11:02:38.783Z,2.00
2022-09-06T11:03:55.656Z,2.10
2022-09-06T11:05:39.725Z,2.40
2022-09-06T11:06:38.482Z,2.10
2022-09-06T11:07:38.476Z,1.80
2022-09-06T11:08:45.932Z,2.20
2022-09-06T11:09:40.443Z,1.70
2022-09-06T11:10:38.431Z,1.90
2022-09-06T11:11:38.441Z,1.90
2022-09-06T11:12:38.427Z,2.10
2022-09-06T11:13:38.401Z,1.60
2022-09-06T11:14:38.394Z,1.90
2022-09-06T11:15:38.462Z,1.70
2022-09-06T11:16:38.372Z,2.00
2022-09-06T11:17:38.365Z,1.90
2022-09-06T11:18:38.356Z,2.10
2022-09-06T11:19:38.360Z,1.70
2022-09-06T11:20:38.324Z,1.80
2022-09-06T11:21:38.326Z,2.00
2022-09-06T11:22:38.320Z,2.00
2022-09-06T11:23:38.301Z,1.80
2022-09-06T11:24:38.328Z,1.80
2022-09-06T11:25:38.301Z,1.80
2022-09-06T11:26:38.276Z,2.10
2022-09-06T11:27:38.282Z,1.30
2022-09-06T11:28:38.290Z,1.50
2022-09-06T11:29:39.270Z,1.70
2022-09-06T11:30:38.279Z,1.80
2022-09-06T11:32:39.231Z,1.70
2022-09-06T11:33:38.203Z,1.80
2022-09-06T11:34:38.207Z,1.50
2022-09-06T11:35:38.218Z,1.40
2022-09-06T11:36:38.187Z,1.60
2022-09-06T11:37:38.170Z,1.60
2022-09-06T11:38:38.166Z,1.50
2022-09-06T11:40:38.157Z,1.80
2022-09-06T11:41:38.181Z,1.60
2022-09-06T11:42:38.127Z,1.40
2022-09-06T11:43:38.138Z,1.70
2022-09-06T11:44:38.105Z,1.50
2022-09-06T11:45:38.107Z,1.80
2022-09-06T11:46:38.141Z,1.60
2022-09-06T11:47:38.083Z,1.60
2022-09-06T11:48:38.086Z,1.80
2022-09-06T11:49:38.066Z,1.70
2022-09-06T11:50:38.060Z,1.60
2022-09-06T11:51:38.053Z,1.40
2022-09-06T11:52:38.055Z,1.40
2022-09-06T11:53:38.073Z,1.70
2022-09-06T11:54:38.022Z,1.50
2022-09-06T11:55:38.007Z,1.70
2022-09-06T11:56:38.002Z,1.80
2022-09-06T11:57:37.993Z,1.90
2022-09-06T11:58:38.298Z,1.80
2022-09-06T11:59:37.977Z,1.70
2022-09-06T12:00:37.960Z,2.00
2022-09-06T12:01:37.946Z,2.00
2022-09-06T12:02:38.078Z,1.90
2022-09-06T12:04:37.927Z,1.70
2022-09-06T12:05:37.914Z,1.60
2022-09-06T12:06:37.894Z,1.70
2022-09-06T12:07:37.912Z,1.70
2022-09-06T12:08:37.870Z,1.50
2022-09-06T12:09:37.896Z,1.90
2022-09-06T12:10:37.855Z,1.80
2022-09-06T12:11:37.842Z,1.50
2022-09-06T12:12:37.840Z,1.90
2022-09-06T12:13:37.830Z,1.60
2022-09-06T12:14:37.836Z,1.60
2022-09-06T12:15:37.860Z,1.70
2022-09-06T12:16:37.790Z,1.90
2022-09-06T12:17:37.784Z,1.70
2022-09-06T12:18:37.776Z,2.00
2022-09-06T12:19:40.951Z,1.50
2022-09-06T12:20:39.773Z,1.80
2022-09-06T12:21:37.772Z,1.60
2022-09-06T12:22:37.752Z,1.50
2022-09-06T12:23:37.731Z,1.70
2022-09-06T12:24:37.753Z,1.80
2022-09-06T12:25:37.724Z,1.80
2022-09-06T12:26:37.702Z,1.60
2022-09-06T12:27:37.753Z,1.70
2022-09-06T12:28:37.676Z,2.10
2022-09-06T12:29:38.700Z,1.80
2022-09-06T12:30:37.699Z,1.80
2022-09-06T12:31:37.760Z,1.60
2022-09-06T12:32:37.647Z,1.60
2022-09-06T12:33:37.666Z,1.70
2022-09-06T12:34:37.634Z,1.80
2022-09-06T12:36:37.605Z,1.90
2022-09-06T12:37:37.606Z,1.60
2022-09-06T12:38:37.641Z,2.00
2022-09-06T12:39:37.612Z,1.60
2022-09-06T12:40:37.566Z,1.70
2022-09-06T12:41:41.747Z,1.80
2022-09-06T12:42:39.555Z,1.80
2022-09-06T12:43:37.558Z,1.50
2022-09-06T12:44:37.538Z,1.90
2022-09-06T12:45:37.522Z,1.60
2022-09-06T12:46:37.623Z,1.70
2022-09-06T12:47:37.505Z,1.70
2022-09-06T12:48:37.496Z,1.80
2022-09-06T12:49:37.482Z,1.80
2022-09-06T12:50:37.482Z,1.60
2022-09-06T12:51:37.458Z,1.90
2022-09-06T12:52:37.476Z,1.70
2022-09-06T12:53:37.467Z,1.50
2022-09-06T12:54:37.444Z,1.70
2022-09-06T12:55:37.443Z,1.50
2022-09-06T12:56:37.425Z,1.60
2022-09-06T12:57:37.418Z,2.00
2022-09-06T12:58:37.424Z,1.50
2022-09-06T12:59:37.408Z,1.40
2022-09-06T13:00:37.427Z,1.50
2022-09-06T13:01:37.500Z,1.70
2022-09-06T13:02:37.532Z,1.70
2022-09-06T13:03:37.390Z,1.80
2022-09-06T13:04:37.353Z,1.70
2022-09-06T13:05:37.341Z,1.90
2022-09-06T13:06:37.337Z,1.70
2022-09-06T13:07:37.338Z,1.40
2022-09-06T13:08:37.310Z,1.70
2022-09-06T13:09:37.297Z,1.70
2022-09-06T13:10:37.301Z,1.60
2022-09-06T13:11:37.281Z,1.60
2022-09-06T13:12:37.292Z,1.20
2022-09-06T13:13:37.263Z,1.40
2022-09-06T13:14:37.261Z,1.40
2022-09-06T13:15:37.282Z,2.00
2022-09-06T13:16:37.277Z,1.20
2022-09-06T13:17:37.247Z,1.50
2022-09-06T13:18:37.228Z,1.30
2022-09-06T13:19:37.212Z,1.50
2022-09-06T13:20:37.190Z,1.40
2022-09-06T13:21:37.194Z,1.50
2022-09-06T13:22:37.208Z,1.30
2022-09-06T13:23:37.192Z,1.30
2022-09-06T13:24:37.167Z,1.40
2022-09-06T13:26:09.058Z,1.60
2022-09-06T13:26:37.148Z,1.20
2022-09-06T13:27:37.172Z,1.40
2022-09-06T13:28:37.152Z,1.70
2022-09-06T13:29:37.118Z,1.50
2022-09-06T13:30:37.111Z,1.40
2022-09-06T13:31:37.164Z,1.40
2022-09-06T13:32:37.120Z,1.30
2022-09-06T13:33:37.134Z,1.70
2022-09-06T13:34:37.071Z,1.40
2022-09-06T13:35:37.070Z,1.40
2022-09-06T13:36:37.053Z,1.10
2022-09-06T13:37:37.041Z,1.50
2022-09-06T13:38:37.059Z,1.30
2022-09-06T13:39:37.062Z,1.20
2022-09-06T13:40:53.785Z,1.30
2022-09-06T13:41:38.013Z,1.10
2022-09-06T13:42:36.996Z,1.20